Time;durP1;ratioP1;P1;durP2;ratioP2;P2;SDS_P1;SDS_P2;PMS_P1;PMS_P2;Temp;Humidity;BMP_temperature;BMP_pressure;BME280_temperature;BME280_humidity;BME280_pressure;Samples;Min_cycle;Max_cycle;Signal;HPM_P1;HPM_P2
2021/12/24 08:07:20;;;;;;;;;13.00;10.25;;;;;14.22;57.68;101015.94;4895459;27;6361244;-94
2021/12/24 08:09:49;;;;;;;;;12.25;11.50;;;;;14.24;57.41;100987.31;5121151;27;45683;-96
2021/12/24 08:12:14;;;;;;;;;9.00;8.75;;;;;14.55;56.98;100999.19;5062576;27;45376;-94
2021/12/24 08:14:40;;;;;;;;;11.00;10.75;;;;;14.57;56.99;100986.56;5053066;27;45341;-95
2021/12/24 08:17:05;;;;;;;;;8.75;8.75;;;;;14.89;56.67;101017.03;5059121;27;46714;-93
2021/12/24 08:19:31;;;;;;;;;14.00;11.50;;;;;14.69;56.45;100958.84;5058120;27;45476;-93
2021/12/24 08:21:57;;;;;;;;;15.25;13.00;;;;;14.92;56.38;100974.88;5076855;27;45332;-92
2021/12/24 08:24:22;;;;;;;;;11.75;11.50;;;;;15.27;55.83;101004.13;5057953;27;45578;-94
2021/12/24 08:26:48;;;;;;;;;9.50;9.25;;;;;15.30;55.71;100987.84;5056324;27;47225;-94
2021/12/24 08:29:14;;;;;;;;;10.50;10.50;;;;;15.35;55.49;100990.97;5093421;27;45811;-95
2021/12/24 08:31:39;;;;;;;;;11.75;9.75;;;;;15.37;55.09;100978.34;5099618;27;45433;-95
2021/12/24 08:34:05;;;;;;;;;13.75;12.00;;;;;15.48;54.80;100965.91;5079272;27;45489;-94
2021/12/24 08:36:31;;;;;;;;;12.50;12.00;;;;;15.90;54.93;101023.03;5097748;27;47013;-95
2021/12/24 08:38:56;;;;;;;;;13.00;10.50;;;;;15.82;54.30;100992.44;5065124;27;45344;-95
2021/12/24 08:41:23;;;;;;;;;13.00;12.50;;;;;16.09;54.41;101018.81;5060903;27;47373;-95
2021/12/24 08:43:48;;;;;;;;;10.50;10.50;;;;;15.95;53.77;100986.03;5044320;27;45492;-94
2021/12/24 08:46:17;;;;;;;;;8.25;8.25;;;;;15.93;53.71;100966.59;5097568;27;48059;-96
2021/12/24 08:48:48;;;;;;;;;10.50;10.50;;;;;16.02;53.29;100960.44;5066805;27;45365;-96
2021/12/24 08:51:29;;;;;;;;;;;;;;;;;;;;;
2021/12/24 08:53:57;;;;;;;;;12.75;10.50;;;;;16.16;53.25;100955.72;5063162;27;70229;-94
2021/12/24 08:56:23;;;;;;;;;11.50;10.00;;;;;16.40;53.30;100984.00;5071695;27;47408;-93
2021/12/24 08:58:49;;;;;;;;;13.25;10.75;;;;;16.59;52.92;101004.66;5073232;27;45517;-91
2021/12/24 09:01:14;;;;;;;;;13.00;13.00;;;;;16.29;52.52;100943.97;5075048;27;45447;-90
2021/12/24 09:03:40;;;;;;;;;11.50;11.50;;;;;16.43;52.37;100948.94;5064587;27;45255;-92
2021/12/24 09:06:06;;;;;;;;;12.50;12.25;;;;;16.54;52.32;100963.19;5061538;27;46815;-93
2021/12/24 09:08:31;;;;;;;;;11.00;10.00;;;;;16.61;52.22;100961.63;5044425;27;45465;-93
2021/12/24 09:10:57;;;;;;;;;9.75;9.50;;;;;16.87;52.18;101004.00;5073190;27;45459;-91
2021/12/24 09:13:22;;;;;;;;;12.50;11.75;;;;;16.63;51.91;100962.38;5058569;27;45489;-90
2021/12/24 09:15:53;;;;;;;;;13.00;11.50;;;;;16.76;51.88;100961.25;5092427;27;47288;-95
2021/12/24 09:18:22;;;;;;;;;11.80;9.20;;;;;16.86;52.02;100978.22;5064940;27;45425;-96
2021/12/24 09:20:47;;;;;;;;;9.80;7.00;;;;;16.84;51.45;100969.44;5033827;28;45445;-93
2021/12/24 09:23:13;;;;;;;;;13.00;12.50;;;;;16.77;51.44;100946.88;5049677;27;45383;-96
2021/12/24 09:25:40;;;;;;;;;12.75;12.50;;;;;16.90;51.42;100966.22;5045841;28;48204;-95
2021/12/24 09:28:08;;;;;;;;;9.80;9.80;;;;;17.10;51.49;100995.72;5076093;27;45480;-95
2021/12/24 09:30:33;;;;;;;;;15.00;13.00;;;;;16.88;51.34;100960.16;5073645;27;44790;-95
2021/12/24 09:33:01;;;;;;;;;14.25;10.25;;;;;17.12;51.80;100987.53;5060809;27;44777;-94
2021/12/24 09:35:28;;;;;;;;;11.00;10.25;;;;;17.13;51.21;100984.72;5088883;27;47260;-93
2021/12/24 09:37:54;;;;;;;;;7.80;7.80;;;;;17.08;51.32;100953.94;5065100;28;45411;-93
2021/12/24 09:40:20;;;;;;;;;10.20;9.80;;;;;17.14;51.12;100970.31;5039573;28;44769;-96
2021/12/24 09:42:46;;;;;;;;;9.25;8.00;;;;;17.25;51.10;100987.28;5049934;28;45423;-96
2021/12/24 09:45:11;;;;;;;;;12.00;12.00;;;;;17.10;51.23;100966.22;5043069;28;45520;-95
2021/12/24 09:47:40;;;;;;;;;11.25;10.25;;;;;17.22;51.31;100987.56;5045244;28;45604;-95
2021/12/24 09:50:06;;;;;;;;;10.25;10.25;;;;;17.13;51.40;100962.41;5028734;28;45396;-96
2021/12/24 09:52:32;;;;;;;;;12.25;11.00;;;;;17.22;50.86;100966.13;5025086;28;45476;-95
2021/12/24 09:54:57;;;;;;;;;10.50;10.50;;;;;17.27;50.79;100974.56;5040557;28;47405;-92
2021/12/24 09:57:29;;;;;;;;;8.50;7.00;;;;;17.33;51.08;100984.75;5018342;28;45490;-95
2021/12/24 09:59:54;;;;;;;;;12.25;12.00;;;;;17.31;51.04;100977.81;5007157;28;45511;-92
2021/12/24 10:02:28;;;;;;;;;10.50;9.75;;;;;17.17;50.99;100962.97;5055187;28;45410;-92
2021/12/24 10:04:56;;;;;;;;;10.50;10.50;;;;;17.20;50.88;100974.31;5071377;28;45579;-96
2021/12/24 10:07:28;;;;;;;;;11.40;10.40;;;;;17.33;51.12;101011.56;5037084;28;48014;-94
2021/12/24 10:10:07;;;;;;;;;15.20;9.80;;;;;17.18;51.08;100980.81;5056972;28;45523;-91
2021/12/24 10:13:16;;;;;;;;;20.50;16.25;;;;;17.02;51.05;100950.00;5035005;28;45523;-94
2021/12/24 10:16:07;;;;;;;;;14.75;13.25;;;;;17.08;50.83;100954.81;5027033;28;47309;-96
2021/12/24 10:18:34;;;;;;;;;15.60;10.80;;;;;17.41;50.89;100996.59;5052127;28;45210;-92
2021/12/24 10:21:02;;;;;;;;;14.00;12.75;;;;;17.20;50.80;100957.38;5052799;27;45526;-92
2021/12/24 10:24:01;;;;;;;;;13.50;12.00;;;;;17.18;50.44;100956.69;5076608;27;45645;-93
2021/12/24 10:26:31;;;;;;;;;14.75;11.00;;;;;17.43;50.65;101000.84;5070854;27;47858;-96
2021/12/24 10:29:13;;;;;;;;;12.00;11.80;;;;;17.28;50.56;100973.59;5082882;27;45352;-94
2021/12/24 10:31:50;;;;;;;;;13.60;13.60;;;;;17.15;50.43;100952.41;5067083;28;45276;-94
2021/12/24 10:34:21;;;;;;;;;12.50;10.50;;;;;17.45;50.29;101003.38;5085939;27;45549;-90
2021/12/24 10:36:54;;;;;;;;;10.50;10.50;;;;;17.47;50.27;101001.38;5070750;27;48454;-91
2021/12/24 10:39:23;;;;;;;;;14.40;8.80;;;;;17.19;50.07;100955.66;5064832;27;46396;-91
2021/12/24 10:41:49;;;;;;;;;14.40;11.00;;;;;17.39;50.25;100982.47;5045187;27;45521;-91
2021/12/24 10:44:23;;;;;;;;;13.50;12.00;;;;;17.37;50.10;100985.31;5071697;27;45625;-92
2021/12/24 10:47:07;;;;;;;;;11.50;10.25;;;;;17.32;49.82;100972.34;5079111;27;47542;-90
2021/12/24 10:52:16;;;;;;;;;16.00;12.40;;;;;17.19;50.08;100942.25;5059175;28;45542;-96
2021/12/24 10:54:55;;;;;;;;;12.50;11.25;;;;;17.50;50.36;100995.72;5062549;28;45544;-93
2021/12/24 10:57:23;;;;;;;;;10.60;10.40;;;;;17.38;50.28;100970.06;5084559;27;47198;-90
2021/12/24 10:59:49;;;;;;;;;14.00;12.00;;;;;17.30;50.31;100947.47;5056166;27;45400;-91
2021/12/24 11:02:14;;;;;;;;;13.40;12.20;;;;;17.39;50.22;100971.75;5066754;27;45708;-90
2021/12/24 11:04:40;;;;;;;;;11.25;10.75;;;;;17.42;50.00;100966.09;5045254;28;45472;-91
2021/12/24 11:07:39;;;;;;;;;9.75;9.75;;;;;17.50;50.09;100978.81;5049595;28;46122;-91
2021/12/24 11:10:13;;;;;;;;;10.60;10.60;;;;;17.51;50.09;100980.50;5082931;27;45327;-90
2021/12/24 11:12:41;;;;;;;;;12.60;9.20;;;;;17.47;50.02;100974.56;5191052;22;44939;-90
2021/12/24 11:15:19;;;;;;;;;11.75;10.50;;;;;17.44;50.19;100964.13;5016845;28;45535;-90
2021/12/24 11:17:45;;;;;;;;;11.40;10.80;;;;;17.52;50.15;100971.47;5019794;28;46851;-90
2021/12/24 11:20:11;;;;;;;;;12.75;12.25;;;;;17.42;50.07;100958.06;5017625;28;45450;-90
2021/12/24 11:22:49;;;;;;;;;14.20;11.80;;;;;17.51;50.29;100962.56;5017941;28;45561;-90
2021/12/24 11:25:14;;;;;;;;;10.75;9.50;;;;;17.51;49.99;100967.06;5040690;28;45516;-91
2021/12/24 11:27:40;;;;;;;;;15.50;13.00;;;;;17.58;49.89;100971.72;5034914;28;45660;-90
2021/12/24 11:30:06;;;;;;;;;12.50;11.25;;;;;17.34;50.03;100931.97;5048599;28;45473;-90
2021/12/24 11:32:31;;;;;;;;;9.75;9.75;;;;;17.50;50.09;100957.34;5039184;28;45402;-90
2021/12/24 11:34:57;;;;;;;;;11.25;11.25;;;;;17.45;49.58;100955.09;5037510;28;45537;-90
2021/12/24 11:37:22;;;;;;;;;16.25;11.75;;;;;17.39;49.82;100927.00;5058800;28;45351;-90
2021/12/24 11:39:48;;;;;;;;;13.00;10.50;;;;;17.52;49.99;100941.97;5020037;28;45409;-89
2021/12/24 11:42:13;;;;;;;;;11.50;11.00;;;;;17.58;50.00;100952.94;5017797;28;45506;-89
2021/12/24 11:44:39;;;;;;;;;10.75;10.75;;;;;17.43;49.66;100912.34;5000887;28;45951;-89
2021/12/24 11:47:05;;;;;;;;;10.50;10.00;;;;;17.51;49.83;100916.97;5033195;28;46157;-90
2021/12/24 11:49:31;;;;;;;;;13.25;13.00;;;;;17.65;49.58;100934.44;5043953;28;45399;-88
2021/12/24 11:51:56;;;;;;;;;12.60;12.20;;;;;17.64;49.98;100930.06;5047348;28;45403;-89
2021/12/24 11:54:22;;;;;;;;;10.75;10.75;;;;;17.55;50.39;100913.03;5039195;28;45651;-89
2021/12/24 11:56:51;;;;;;;;;16.50;14.25;;;;;17.57;49.75;100916.38;5021319;28;47348;-89
2021/12/24 11:59:18;;;;;;;;;14.40;13.60;;;;;17.64;49.88;100908.59;5018855;28;46264;-89
2021/12/24 12:01:44;;;;;;;;;14.20;11.00;;;;;17.61;50.05;100906.22;5028433;28;45567;-88
2021/12/24 12:04:14;;;;;;;;;9.00;8.50;;;;;17.47;50.09;100880.69;5018370;28;45647;-89
2021/12/24 12:06:40;;;;;;;;;15.80;13.40;;;;;17.49;49.89;100881.41;5036038;28;46033;-90
2021/12/24 12:09:08;;;;;;;;;14.75;11.25;;;;;17.46;49.84;100870.97;5042876;28;45770;-91
2021/12/24 12:11:35;;;;;;;;;10.00;9.00;;;;;17.57;49.74;100881.53;5032081;28;45503;-91
2021/12/24 12:14:05;;;;;;;;;29.25;25.00;;;;;17.68;49.70;100891.22;5017590;28;45865;-90
2021/12/24 12:16:42;;;;;;;;;17.80;17.00;;;;;17.65;49.95;100882.63;5030907;28;47240;-91
2021/12/24 12:22:14;;;;;;;;;32.50;29.25;;;;;17.73;49.92;100890.78;5033936;28;45557;-89
2021/12/24 12:27:19;;;;;;;;;19.50;17.50;;;;;17.65;50.12;100869.19;5052095;28;45461;-95
2021/12/24 12:29:44;;;;;;;;;25.00;23.75;;;;;17.47;49.89;100835.94;5023044;28;45424;-95
2021/12/24 12:32:39;;;;;;;;;26.50;26.25;;;;;17.65;50.13;100858.47;5020152;28;45298;-92
